createdAt,value
2024-03-12T00:00:33.481Z,1001.46
2024-03-12T00:01:33.552Z,1001.52
2024-03-12T00:02:33.466Z,1001.48
2024-03-12T00:03:33.470Z,1001.54
2024-03-12T00:04:33.540Z,1001.57
2024-03-12T00:05:33.431Z,1001.57
2024-03-12T00:06:33.520Z,1001.55
2024-03-12T00:07:33.380Z,1001.61
2024-03-12T00:08:33.404Z,1001.56
2024-03-12T00:09:33.500Z,1001.59
2024-03-12T00:10:33.454Z,1001.55
2024-03-12T00:11:33.549Z,1001.56
2024-03-12T00:12:33.413Z,1001.54
2024-03-12T00:13:33.428Z,1001.50
2024-03-12T00:14:33.301Z,1001.56
2024-03-12T00:15:33.392Z,1001.55
2024-03-12T00:16:35.419Z,1001.60
2024-03-12T00:17:33.310Z,1001.63
2024-03-12T00:18:33.310Z,1001.62
2024-03-12T00:19:33.263Z,1001.65
2024-03-12T00:20:33.326Z,1001.69
2024-03-12T00:21:33.319Z,1001.66
2024-03-12T00:22:33.209Z,1001.70
2024-03-12T00:23:33.325Z,1001.68
2024-03-12T00:24:33.304Z,1001.69
2024-03-12T00:25:33.358Z,1001.71
2024-03-12T00:26:33.248Z,1001.70
2024-03-12T00:27:33.182Z,1001.67
2024-03-12T00:28:33.177Z,1001.71
2024-03-12T00:29:33.150Z,1001.71
2024-03-12T00:30:33.244Z,1001.71
2024-03-12T00:31:33.173Z,1001.75
2024-03-12T00:32:33.187Z,1001.76
2024-03-12T00:33:33.174Z,1001.78
2024-03-12T00:34:33.094Z,1001.77
2024-03-12T00:35:33.116Z,1001.78
2024-03-12T00:36:33.107Z,1001.79
2024-03-12T00:37:33.091Z,1001.77
2024-03-12T00:38:33.114Z,1001.78
2024-03-12T00:39:33.061Z,1001.79
2024-03-12T00:40:33.017Z,1001.79
2024-03-12T00:41:33.015Z,1001.79
2024-03-12T00:42:33.055Z,1001.81
2024-03-12T00:43:33.027Z,1001.83
2024-03-12T00:44:33.014Z,1001.85
2024-03-12T00:45:33.002Z,1001.82
2024-03-12T00:46:32.973Z,1001.85
2024-03-12T00:47:32.952Z,1001.90
2024-03-12T00:48:33.088Z,1001.87
2024-03-12T00:49:32.931Z,1001.92
2024-03-12T00:50:32.897Z,1001.92
2024-03-12T00:51:32.899Z,1001.92
2024-03-12T00:52:32.855Z,1001.93
2024-03-12T00:53:32.848Z,1001.91
2024-03-12T00:54:32.911Z,1001.90
2024-03-12T00:55:32.856Z,1001.90
2024-03-12T00:56:32.814Z,1001.89
2024-03-12T00:57:32.825Z,1001.91
2024-03-12T00:58:32.789Z,1001.92
2024-03-12T00:59:32.802Z,1001.95
2024-03-12T01:00:32.780Z,1001.98
2024-03-12T01:01:32.869Z,1001.97
2024-03-12T01:02:32.750Z,1002.00
2024-03-12T01:03:32.772Z,1002.01
2024-03-12T01:04:32.741Z,1002.03
2024-03-12T01:05:32.722Z,1002.03
2024-03-12T01:06:32.744Z,1002.03
2024-03-12T01:07:32.705Z,1002.07
2024-03-12T01:08:32.688Z,1002.02
2024-03-12T01:09:32.701Z,1002.04
2024-03-12T01:10:32.679Z,1001.98
2024-03-12T01:11:32.727Z,1002.03
2024-03-12T01:12:32.658Z,1002.00
2024-03-12T01:13:32.636Z,1002.03
2024-03-12T01:14:32.618Z,1002.04
2024-03-12T01:15:32.643Z,1002.04
2024-03-12T01:16:33.106Z,1002.04
2024-03-12T01:17:32.747Z,1002.05
2024-03-12T01:18:32.577Z,1002.06
2024-03-12T01:19:32.556Z,1002.06
2024-03-12T01:20:32.574Z,1002.08
2024-03-12T01:21:32.581Z,1002.08
2024-03-12T01:22:32.533Z,1002.04
2024-03-12T01:23:32.542Z,1002.07
2024-03-12T01:24:32.572Z,1002.06
2024-03-12T01:25:32.504Z,1002.01
2024-03-12T01:26:32.480Z,1002.09
2024-03-12T01:27:32.509Z,1002.04
2024-03-12T01:28:32.465Z,1002.05
2024-03-12T01:29:32.467Z,1002.04
2024-03-12T01:30:32.445Z,1002.07
2024-03-12T01:31:32.439Z,1002.10
2024-03-12T01:32:32.490Z,1002.10
2024-03-12T01:33:32.435Z,1002.11
2024-03-12T01:34:32.403Z,1002.10
2024-03-12T01:35:32.475Z,1002.11
2024-03-12T01:36:32.396Z,1002.11
2024-03-12T01:37:32.360Z,1002.10
2024-03-12T01:38:32.349Z,1002.08
2024-03-12T01:39:32.374Z,1002.11
2024-03-12T01:40:32.335Z,1002.11
2024-03-12T01:41:32.315Z,1002.09
2024-03-12T01:42:32.335Z,1002.11
2024-03-12T01:43:32.297Z,1002.12
2024-03-12T01:44:32.384Z,1002.12
2024-03-12T01:45:32.416Z,1002.17
2024-03-12T01:46:32.262Z,1002.22
2024-03-12T01:47:32.260Z,1002.25
2024-03-12T01:48:32.267Z,1002.19
2024-03-12T01:49:32.238Z,1002.16
2024-03-12T01:50:32.212Z,1002.18
2024-03-12T01:51:32.228Z,1002.20
2024-03-12T01:52:32.194Z,1002.17
2024-03-12T01:53:32.182Z,1002.20
2024-03-12T01:54:32.258Z,1002.18
2024-03-12T01:55:32.153Z,1002.22
2024-03-12T01:56:32.146Z,1002.17
2024-03-12T01:57:32.154Z,1002.21
2024-03-12T01:58:32.122Z,1002.22
2024-03-12T01:59:32.116Z,1002.21
2024-03-12T02:00:32.135Z,1002.20
2024-03-12T02:01:32.127Z,1002.19
2024-03-12T02:02:32.073Z,1002.24
2024-03-12T02:03:32.097Z,1002.20
2024-03-12T02:04:32.063Z,1002.20
2024-03-12T02:05:32.052Z,1002.26
2024-03-12T02:06:32.094Z,1002.22
2024-03-12T02:07:32.028Z,1002.28
2024-03-12T02:08:32.006Z,1002.25
2024-03-12T02:09:32.057Z,1002.24
2024-03-12T02:10:31.982Z,1002.27
2024-03-12T02:11:32.059Z,1002.28
2024-03-12T02:12:32.062Z,1002.31
2024-03-12T02:13:31.950Z,1002.31
2024-03-12T02:14:31.934Z,1002.39
2024-03-12T02:15:31.978Z,1002.36
2024-03-12T02:16:31.939Z,1002.40
2024-03-12T02:17:31.944Z,1002.39
2024-03-12T02:18:31.925Z,1002.36
2024-03-12T02:19:31.880Z,1002.37
2024-03-12T02:20:31.901Z,1002.41
2024-03-12T02:21:31.899Z,1002.41
2024-03-12T02:22:31.853Z,1002.43
2024-03-12T02:23:31.842Z,1002.41
2024-03-12T02:24:31.854Z,1002.43
2024-03-12T02:25:31.818Z,1002.41
2024-03-12T02:26:31.800Z,1002.38
2024-03-12T02:27:31.878Z,1002.39
2024-03-12T02:28:31.790Z,1002.40
2024-03-12T02:29:31.775Z,1002.39
2024-03-12T02:30:31.822Z,1002.42
2024-03-12T02:31:31.812Z,1002.40
2024-03-12T02:32:31.777Z,1002.47
2024-03-12T02:33:31.782Z,1002.44
2024-03-12T02:34:31.718Z,1002.44
2024-03-12T02:35:31.722Z,1002.45
2024-03-12T02:36:31.745Z,1002.49
2024-03-12T02:37:31.683Z,1002.52
2024-03-12T02:38:31.666Z,1002.49
2024-03-12T02:39:31.751Z,1002.51
2024-03-12T02:40:31.638Z,1002.53
2024-03-12T02:41:31.651Z,1002.50
2024-03-12T02:42:31.655Z,1002.49
2024-03-12T02:43:31.615Z,1002.51
2024-03-12T02:44:31.639Z,1002.54
2024-03-12T02:45:31.614Z,1002.52
2024-03-12T02:46:31.578Z,1002.48
2024-03-12T02:47:31.586Z,1002.50
2024-03-12T02:48:31.585Z,1002.52
2024-03-12T02:49:31.577Z,1002.52
2024-03-12T02:50:31.540Z,1002.59
2024-03-12T02:51:31.534Z,1002.60
2024-03-12T02:52:31.503Z,1002.61
2024-03-12T02:53:31.503Z,1002.62
2024-03-12T02:54:31.518Z,1002.63
2024-03-12T02:55:31.499Z,1002.65
2024-03-12T02:56:31.463Z,1002.66
2024-03-12T02:57:31.509Z,1002.65
2024-03-12T02:58:31.445Z,1002.69
2024-03-12T02:59:31.457Z,1002.69
2024-03-12T03:00:31.420Z,1002.66
2024-03-12T03:01:31.512Z,1002.67
2024-03-12T03:02:31.397Z,1002.67
2024-03-12T03:03:31.411Z,1002.70
2024-03-12T03:04:31.379Z,1002.68
2024-03-12T03:05:31.365Z,1002.70
2024-03-12T03:06:31.399Z,1002.68
2024-03-12T03:07:31.341Z,1002.67
2024-03-12T03:08:31.337Z,1002.68
2024-03-12T03:09:31.360Z,1002.70
2024-03-12T03:10:31.324Z,1002.66
2024-03-12T03:11:31.310Z,1002.69
2024-03-12T03:12:31.350Z,1002.67
2024-03-12T03:13:31.268Z,1002.65
2024-03-12T03:14:31.275Z,1002.67
2024-03-12T03:15:31.320Z,1002.66
2024-03-12T03:16:31.246Z,1002.63
2024-03-12T03:17:31.255Z,1002.66
2024-03-12T03:18:31.262Z,1002.60
2024-03-12T03:19:31.214Z,1002.60
2024-03-12T03:20:31.190Z,1002.58
2024-03-12T03:21:31.220Z,1002.58
2024-03-12T03:22:31.175Z,1002.57
2024-03-12T03:23:31.188Z,1002.54
2024-03-12T03:24:31.163Z,1002.58
2024-03-12T03:25:31.151Z,1002.56
2024-03-12T03:26:31.141Z,1002.52
2024-03-12T03:27:31.123Z,1002.50
2024-03-12T03:28:31.127Z,1002.49
2024-03-12T03:29:31.090Z,1002.49
2024-03-12T03:30:31.103Z,1002.46
2024-03-12T03:31:31.074Z,1002.45
2024-03-12T03:32:31.099Z,1002.50
2024-03-12T03:33:31.155Z,1002.56
2024-03-12T03:34:31.069Z,1002.55
2024-03-12T03:35:31.039Z,1002.56
2024-03-12T03:36:31.019Z,1002.63
2024-03-12T03:37:31.014Z,1002.66
2024-03-12T03:38:30.987Z,1002.68
2024-03-12T03:39:30.991Z,1002.69
2024-03-12T03:40:30.978Z,1002.77
2024-03-12T03:41:30.974Z,1002.75
2024-03-12T03:42:30.977Z,1002.78
2024-03-12T03:43:30.939Z,1002.78
2024-03-12T03:44:30.920Z,1002.80
2024-03-12T03:45:30.962Z,1002.81
2024-03-12T03:46:30.993Z,1002.82
2024-03-12T03:47:30.946Z,1002.82
2024-03-12T03:48:30.910Z,1002.85
2024-03-12T03:49:30.868Z,1002.85
2024-03-12T03:50:30.896Z,1002.89
2024-03-12T03:51:30.877Z,1002.88
2024-03-12T03:52:30.826Z,1002.91
2024-03-12T03:53:30.831Z,1002.85
2024-03-12T03:54:30.838Z,1002.90
2024-03-12T03:55:30.801Z,1002.96
2024-03-12T03:56:30.788Z,1002.97
2024-03-12T03:57:30.812Z,1002.93
2024-03-12T03:58:30.782Z,1002.99
2024-03-12T03:59:30.754Z,1002.99
2024-03-12T04:00:30.767Z,1003.02
2024-03-12T04:01:30.822Z,1003.02
2024-03-12T04:02:30.720Z,1003.01
2024-03-12T04:03:30.756Z,1003.10
2024-03-12T04:04:30.724Z,1003.08
2024-03-12T04:05:30.700Z,1003.04
2024-03-12T04:06:30.702Z,1003.08
2024-03-12T04:07:30.674Z,1003.09
2024-03-12T04:08:30.672Z,1003.09
2024-03-12T04:09:30.680Z,1003.10
2024-03-12T04:10:30.635Z,1003.12
2024-03-12T04:11:30.637Z,1003.08
2024-03-12T04:12:30.649Z,1003.16
2024-03-12T04:13:30.628Z,1003.15
2024-03-12T04:14:30.593Z,1003.16
2024-03-12T04:15:30.797Z,1003.18
2024-03-12T04:16:30.566Z,1003.18
2024-03-12T04:17:30.559Z,1003.20
2024-03-12T04:18:30.621Z,1003.18
2024-03-12T04:19:30.537Z,1003.25
2024-03-12T04:20:30.523Z,1003.28
2024-03-12T04:21:30.579Z,1003.24
2024-03-12T04:22:30.503Z,1003.26
2024-03-12T04:23:30.483Z,1003.24
2024-03-12T04:24:30.509Z,1003.28
2024-03-12T04:25:30.478Z,1003.28
2024-03-12T04:26:30.571Z,1003.30
2024-03-12T04:27:30.486Z,1003.27
2024-03-12T04:28:30.438Z,1003.28
2024-03-12T04:29:30.441Z,1003.29
2024-03-12T04:30:30.451Z,1003.31
2024-03-12T04:31:30.396Z,1003.30
2024-03-12T04:32:30.400Z,1003.29
2024-03-12T04:33:30.403Z,1003.33
2024-03-12T04:34:30.361Z,1003.37
2024-03-12T04:35:30.369Z,1003.34
2024-03-12T04:36:30.383Z,1003.37
2024-03-12T04:37:30.327Z,1003.36
2024-03-12T04:38:30.321Z,1003.39
2024-03-12T04:39:30.322Z,1003.40
2024-03-12T04:40:30.368Z,1003.45
2024-03-12T04:41:30.297Z,1003.43
2024-03-12T04:42:30.331Z,1003.42
2024-03-12T04:43:30.272Z,1003.45
2024-03-12T04:44:30.256Z,1003.47
2024-03-12T04:45:30.252Z,1003.48
2024-03-12T04:46:30.233Z,1003.45
2024-03-12T04:47:30.271Z,1003.50
2024-03-12T04:48:30.293Z,1003.46
2024-03-12T04:49:30.201Z,1003.46
2024-03-12T04:50:30.195Z,1003.42
2024-03-12T04:51:30.199Z,1003.45
2024-03-12T04:52:30.165Z,1003.46
2024-03-12T04:53:30.153Z,1003.50
2024-03-12T04:54:30.155Z,1003.52
2024-03-12T04:55:30.138Z,1003.54
2024-03-12T04:56:30.132Z,1003.51
2024-03-12T04:57:30.112Z,1003.53
2024-03-12T04:58:30.119Z,1003.56
2024-03-12T04:59:30.108Z,1003.56
2024-03-12T05:00:32.644Z,1003.58
2024-03-12T05:01:30.113Z,1003.58
2024-03-12T05:02:30.052Z,1003.68
2024-03-12T05:03:30.119Z,1003.63
2024-03-12T05:04:30.076Z,1003.61
2024-03-12T05:05:30.030Z,1003.61
2024-03-12T05:06:30.068Z,1003.67
2024-03-12T05:07:29.998Z,1003.62
2024-03-12T05:08:29.993Z,1003.68
2024-03-12T05:09:30.029Z,1003.72
2024-03-12T05:10:29.962Z,1003.73
2024-03-12T05:11:29.989Z,1003.71
2024-03-12T05:12:29.966Z,1003.76
2024-03-12T05:13:29.940Z,1003.79
2024-03-12T05:14:29.918Z,1003.77
2024-03-12T05:15:29.934Z,1003.82
2024-03-12T05:16:29.945Z,1003.84
2024-03-12T05:17:29.937Z,1003.83
2024-03-12T05:18:29.996Z,1003.84
2024-03-12T05:19:29.861Z,1003.88
2024-03-12T05:20:29.861Z,1003.89
2024-03-12T05:21:31.984Z,1003.85
2024-03-12T05:22:29.876Z,1003.92
2024-03-12T05:23:29.814Z,1003.91
2024-03-12T05:24:29.823Z,1003.94
2024-03-12T05:25:29.804Z,1003.93
2024-03-12T05:26:29.786Z,1003.95
2024-03-12T05:27:29.796Z,1004.01
2024-03-12T05:28:29.753Z,1003.98
2024-03-12T05:29:29.740Z,1003.99
2024-03-12T05:30:29.778Z,1004.01
2024-03-12T05:31:29.734Z,1004.04
2024-03-12T05:32:29.776Z,1004.01
2024-03-12T05:33:29.799Z,1004.08
2024-03-12T05:34:29.700Z,1004.00
2024-03-12T05:35:29.683Z,1004.07
2024-03-12T05:36:29.702Z,1004.05
2024-03-12T05:37:29.742Z,1004.09
2024-03-12T05:38:29.658Z,1004.10
2024-03-12T05:39:29.656Z,1004.14
2024-03-12T05:40:29.628Z,1004.16
2024-03-12T05:41:29.618Z,1004.14
2024-03-12T05:42:29.629Z,1004.21
2024-03-12T05:43:29.612Z,1004.22
2024-03-12T05:44:29.622Z,1004.21
2024-03-12T05:45:29.627Z,1004.21
2024-03-12T05:46:29.641Z,1004.22
2024-03-12T05:47:29.598Z,1004.19
2024-03-12T05:48:29.628Z,1004.26
2024-03-12T05:49:29.533Z,1004.24
2024-03-12T05:50:29.520Z,1004.20
2024-03-12T05:51:29.502Z,1004.25
2024-03-12T05:52:29.499Z,1004.22
2024-03-12T05:53:29.499Z,1004.25
2024-03-12T05:54:29.486Z,1004.25
2024-03-12T05:55:29.469Z,1004.27
2024-03-12T05:56:29.465Z,1004.30
2024-03-12T05:57:29.520Z,1004.29
2024-03-12T05:58:29.446Z,1004.26
2024-03-12T05:59:29.429Z,1004.29
2024-03-12T06:00:29.588Z,1004.33
2024-03-12T06:01:30.259Z,1004.32
2024-03-12T06:02:29.384Z,1004.33
2024-03-12T06:03:29.397Z,1004.35
2024-03-12T06:04:29.372Z,1004.37
2024-03-12T06:05:29.362Z,1004.38
2024-03-12T06:06:29.358Z,1004.37
2024-03-12T06:07:29.349Z,1004.43
2024-03-12T06:08:29.316Z,1004.43
2024-03-12T06:09:29.372Z,1004.41
2024-03-12T06:10:29.305Z,1004.44
2024-03-12T06:11:29.340Z,1004.46
2024-03-12T06:12:29.305Z,1004.40
2024-03-12T06:13:29.278Z,1004.43
2024-03-12T06:14:29.280Z,1004.45
2024-03-12T06:15:29.239Z,1004.47
2024-03-12T06:16:29.257Z,1004.52
2024-03-12T06:17:29.237Z,1004.49
2024-03-12T06:18:29.448Z,1004.52
2024-03-12T06:19:29.223Z,1004.52
2024-03-12T06:20:29.176Z,1004.51
2024-03-12T06:21:29.212Z,1004.52
2024-03-12T06:22:29.161Z,1004.52
2024-03-12T06:23:29.141Z,1004.55
2024-03-12T06:24:29.210Z,1004.59
2024-03-12T06:25:29.164Z,1004.57
2024-03-12T06:26:29.133Z,1004.65
2024-03-12T06:27:29.124Z,1004.64
2024-03-12T06:28:29.236Z,1004.69
2024-03-12T06:29:29.090Z,1004.67
2024-03-12T06:30:29.168Z,1004.71
2024-03-12T06:31:29.058Z,1004.74
2024-03-12T06:32:29.169Z,1004.74
2024-03-12T06:33:29.099Z,1004.78
2024-03-12T06:34:29.056Z,1004.77
2024-03-12T06:35:29.009Z,1004.80
2024-03-12T06:36:29.064Z,1004.82
2024-03-12T06:37:28.997Z,1004.76
2024-03-12T06:38:29.004Z,1004.79
2024-03-12T06:39:29.013Z,1004.76
2024-03-12T06:40:28.942Z,1004.78
2024-03-12T06:41:28.954Z,1004.79
2024-03-12T06:42:28.938Z,1004.79
2024-03-12T06:43:28.912Z,1004.80
2024-03-12T06:44:28.911Z,1004.82
2024-03-12T06:45:28.939Z,1004.84
2024-03-12T06:46:28.904Z,1004.83
2024-03-12T06:47:28.932Z,1004.84
2024-03-12T06:48:28.878Z,1004.84
2024-03-12T06:49:28.855Z,1004.84
2024-03-12T06:50:28.842Z,1004.87
2024-03-12T06:51:28.858Z,1004.88
2024-03-12T06:52:28.860Z,1004.91
2024-03-12T06:53:28.816Z,1004.91
2024-03-12T06:54:28.844Z,1004.89
2024-03-12T06:55:28.850Z,1004.92
2024-03-12T06:56:28.777Z,1004.91
2024-03-12T06:57:28.801Z,1004.96
2024-03-12T06:58:28.767Z,1004.98
2024-03-12T06:59:28.734Z,1004.99
2024-03-12T07:00:28.795Z,1004.99
2024-03-12T07:01:28.787Z,1005.00
2024-03-12T07:02:28.706Z,1005.04
2024-03-12T07:03:28.742Z,1005.01
2024-03-12T07:04:28.716Z,1005.07
2024-03-12T07:05:28.704Z,1005.04
2024-03-12T07:06:28.688Z,1005.08
2024-03-12T07:07:28.657Z,1005.13
2024-03-12T07:08:28.693Z,1005.17
2024-03-12T07:09:28.683Z,1005.14
2024-03-12T07:10:28.674Z,1005.14
2024-03-12T07:11:28.630Z,1005.10
2024-03-12T07:12:28.624Z,1005.18
2024-03-12T07:13:28.626Z,1005.13
2024-03-12T07:14:28.563Z,1005.13
2024-03-12T07:15:28.615Z,1005.10
2024-03-12T07:16:28.553Z,1005.10
2024-03-12T07:17:31.276Z,1005.16
2024-03-12T07:18:28.579Z,1005.16
2024-03-12T07:19:28.540Z,1005.16
2024-03-12T07:20:28.500Z,1005.15
2024-03-12T07:21:28.507Z,1005.16
2024-03-12T07:22:28.491Z,1005.14
2024-03-12T07:23:28.472Z,1005.18
2024-03-12T07:24:28.493Z,1005.19
2024-03-12T07:25:28.452Z,1005.18
2024-03-12T07:26:28.441Z,1005.18
2024-03-12T07:27:28.461Z,1005.18
2024-03-12T07:28:28.617Z,1005.17
2024-03-12T07:29:28.448Z,1005.18
2024-03-12T07:30:28.445Z,1005.23
2024-03-12T07:31:28.373Z,1005.21
2024-03-12T07:32:28.430Z,1005.25
2024-03-12T07:33:28.386Z,1005.28
2024-03-12T07:34:28.470Z,1005.28
2024-03-12T07:35:28.337Z,1005.29
2024-03-12T07:36:28.399Z,1005.29
2024-03-12T07:37:28.319Z,1005.33
2024-03-12T07:38:28.299Z,1005.32
2024-03-12T07:39:28.352Z,1005.34
2024-03-12T07:40:28.356Z,1005.34
2024-03-12T07:41:28.286Z,1005.33
2024-03-12T07:42:28.263Z,1005.34
2024-03-12T07:43:28.251Z,1005.34
2024-03-12T07:44:28.249Z,1005.32
2024-03-12T07:45:28.998Z,1005.36
2024-03-12T07:46:28.228Z,1005.34
2024-03-12T07:47:28.227Z,1005.36
2024-03-12T07:48:28.405Z,1005.38
2024-03-12T07:49:28.283Z,1005.40
2024-03-12T07:50:28.161Z,1005.38
2024-03-12T07:51:28.217Z,1005.41
2024-03-12T07:52:28.147Z,1005.44
2024-03-12T07:53:28.138Z,1005.42
2024-03-12T07:54:28.166Z,1005.45
2024-03-12T07:55:28.124Z,1005.44
2024-03-12T07:56:28.125Z,1005.44
2024-03-12T07:57:28.102Z,1005.48
2024-03-12T07:58:28.076Z,1005.46
2024-03-12T07:59:28.082Z,1005.49
2024-03-12T08:00:28.097Z,1005.50
2024-03-12T08:01:28.112Z,1005.52
2024-03-12T08:02:28.028Z,1005.47
2024-03-12T08:03:28.811Z,1005.53
2024-03-12T08:04:28.045Z,1005.48
2024-03-12T08:05:29.169Z,1005.53
2024-03-12T08:06:28.021Z,1005.58
2024-03-12T08:07:28.000Z,1005.57
2024-03-12T08:08:27.960Z,1005.58
2024-03-12T08:09:28.002Z,1005.60
2024-03-12T08:10:28.021Z,1005.63
2024-03-12T08:11:27.989Z,1005.65
2024-03-12T08:12:27.946Z,1005.63
2024-03-12T08:13:27.916Z,1005.61
2024-03-12T08:14:27.904Z,1005.63
2024-03-12T08:15:27.902Z,1005.63
2024-03-12T08:16:27.884Z,1005.67
2024-03-12T08:17:27.923Z,1005.72
2024-03-12T08:18:27.963Z,1005.65
2024-03-12T08:19:27.856Z,1005.68
2024-03-12T08:20:27.830Z,1005.68
2024-03-12T08:21:27.829Z,1005.72
2024-03-12T08:22:27.809Z,1005.72
2024-03-12T08:23:27.816Z,1005.78
2024-03-12T08:24:27.827Z,1005.76
2024-03-12T08:25:29.710Z,1005.77
2024-03-12T08:26:27.774Z,1005.75
2024-03-12T08:27:27.787Z,1005.79
2024-03-12T08:28:27.792Z,1005.82
2024-03-12T08:29:27.732Z,1005.84
2024-03-12T08:30:28.911Z,1005.85
2024-03-12T08:31:32.945Z,1005.88
2024-03-12T08:32:27.847Z,1005.86
2024-03-12T08:33:27.898Z,1005.81
2024-03-12T08:34:27.762Z,1005.89
2024-03-12T08:35:27.662Z,1005.87
2024-03-12T08:36:27.670Z,1005.93
2024-03-12T08:37:27.648Z,1005.92
2024-03-12T08:38:27.628Z,1005.93
2024-03-12T08:39:27.651Z,1005.93
2024-03-12T08:40:27.660Z,1005.98
2024-03-12T08:41:27.608Z,1005.99
2024-03-12T08:42:27.620Z,1005.98
2024-03-12T08:43:27.601Z,1006.02
2024-03-12T08:44:27.572Z,1006.00
2024-03-12T08:45:27.636Z,1005.97
2024-03-12T08:46:27.541Z,1006.04
2024-03-12T08:47:27.574Z,1006.08
2024-03-12T08:48:27.557Z,1006.02
2024-03-12T08:49:27.527Z,1006.04
2024-03-12T08:50:27.498Z,1006.05
2024-03-12T08:51:27.690Z,1006.06
2024-03-12T08:52:27.511Z,1006.08
2024-03-12T08:53:27.456Z,1006.10
2024-03-12T08:54:27.473Z,1006.13
2024-03-12T08:55:27.480Z,1006.09
2024-03-12T08:56:27.447Z,1006.10
2024-03-12T08:57:27.426Z,1006.10
2024-03-12T08:58:27.404Z,1006.12
2024-03-12T08:59:27.426Z,1006.11
2024-03-12T09:00:27.399Z,1006.09
2024-03-12T09:01:27.454Z,1006.12
2024-03-12T09:02:27.379Z,1006.16
2024-03-12T09:03:27.410Z,1006.17
2024-03-12T09:04:27.382Z,1006.20
2024-03-12T09:05:27.514Z,1006.21
2024-03-12T09:06:27.412Z,1006.25
2024-03-12T09:07:27.318Z,1006.22
2024-03-12T09:08:27.287Z,1006.27
2024-03-12T09:09:27.292Z,1006.26
2024-03-12T09:10:27.375Z,1006.29
2024-03-12T09:11:27.294Z,1006.33
2024-03-12T09:12:27.273Z,1006.26
2024-03-12T09:13:27.241Z,1006.28
2024-03-12T09:14:27.234Z,1006.28
2024-03-12T09:15:27.219Z,1006.31
2024-03-12T09:16:27.214Z,1006.33
2024-03-12T09:17:27.230Z,1006.37
2024-03-12T09:18:27.809Z,1006.35
2024-03-12T09:19:27.168Z,1006.41
2024-03-12T09:20:27.168Z,1006.43
2024-03-12T09:21:27.166Z,1006.42
2024-03-12T09:22:27.145Z,1006.44
2024-03-12T09:23:27.151Z,1006.44
2024-03-12T09:24:27.127Z,1006.44
2024-03-12T09:25:27.150Z,1006.50
2024-03-12T09:26:27.108Z,1006.49
2024-03-12T09:27:27.100Z,1006.49
2024-03-12T09:28:27.074Z,1006.53
2024-03-12T09:29:27.060Z,1006.55
2024-03-12T09:30:27.070Z,1006.53
2024-03-12T09:31:27.061Z,1006.55
2024-03-12T09:32:27.027Z,1006.54
2024-03-12T09:33:27.022Z,1006.54
2024-03-12T09:34:27.003Z,1006.55
2024-03-12T09:35:27.053Z,1006.57
2024-03-12T09:36:26.986Z,1006.52
2024-03-12T09:37:26.995Z,1006.57
2024-03-12T09:38:26.964Z,1006.54
2024-03-12T09:39:26.957Z,1006.54
2024-03-12T09:40:26.995Z,1006.55
2024-03-12T09:41:26.957Z,1006.55
2024-03-12T09:42:26.917Z,1006.56
2024-03-12T09:43:26.967Z,1006.57
2024-03-12T09:44:26.903Z,1006.54
2024-03-12T09:45:26.891Z,1006.62
2024-03-12T09:46:26.869Z,1006.55
2024-03-12T09:47:26.905Z,1006.57
2024-03-12T09:48:26.851Z,1006.58
2024-03-12T09:49:26.845Z,1006.54
2024-03-12T09:50:26.834Z,1006.61
2024-03-12T09:51:26.815Z,1006.61
2024-03-12T09:52:26.800Z,1006.64
2024-03-12T09:53:26.822Z,1006.67
2024-03-12T09:54:26.780Z,1006.67
2024-03-12T09:55:26.774Z,1006.68
2024-03-12T09:56:26.767Z,1006.70
2024-03-12T09:57:26.779Z,1006.67
2024-03-12T09:58:26.732Z,1006.67
2024-03-12T09:59:26.748Z,1006.76
2024-03-12T10:00:26.727Z,1006.71
2024-03-12T10:01:26.702Z,1006.71
2024-03-12T10:02:26.722Z,1006.74
2024-03-12T10:03:26.706Z,1006.78
2024-03-12T10:04:26.682Z,1006.78
2024-03-12T10:05:26.682Z,1006.82
2024-03-12T10:06:26.657Z,1006.82
2024-03-12T10:07:26.626Z,1006.80
2024-03-12T10:08:26.635Z,1006.80
2024-03-12T10:09:26.636Z,1006.81
2024-03-12T10:10:26.636Z,1006.86
2024-03-12T10:11:26.667Z,1006.81
2024-03-12T10:12:26.585Z,1006.79
2024-03-12T10:13:26.584Z,1006.82
2024-03-12T10:14:26.572Z,1006.81
2024-03-12T10:15:26.569Z,1006.83
2024-03-12T10:16:26.539Z,1006.84
2024-03-12T10:17:26.565Z,1006.89
2024-03-12T10:18:26.510Z,1006.82
2024-03-12T10:19:26.596Z,1006.85
2024-03-12T10:20:26.497Z,1006.87
2024-03-12T10:21:26.476Z,1006.86
2024-03-12T10:22:26.560Z,1006.84
2024-03-12T10:23:26.457Z,1006.85
2024-03-12T10:24:26.466Z,1006.84
2024-03-12T10:25:26.440Z,1006.84
2024-03-12T10:26:26.427Z,1006.82
2024-03-12T10:27:26.408Z,1006.87
2024-03-12T10:28:26.503Z,1006.82
2024-03-12T10:29:26.405Z,1006.82
2024-03-12T10:30:26.381Z,1006.83
2024-03-12T10:31:26.414Z,1006.84
2024-03-12T10:32:26.371Z,1006.81
2024-03-12T10:33:26.365Z,1006.75
2024-03-12T10:34:26.435Z,1006.81
2024-03-12T10:35:26.384Z,1006.79
2024-03-12T10:36:26.372Z,1006.82
2024-03-12T10:37:26.298Z,1006.82
2024-03-12T10:38:26.289Z,1006.86
2024-03-12T10:39:26.310Z,1006.87
2024-03-12T10:40:26.353Z,1006.86
2024-03-12T10:41:26.253Z,1006.85
2024-03-12T10:42:26.250Z,1006.89
2024-03-12T10:43:26.273Z,1006.90
2024-03-12T10:44:26.219Z,1006.88
2024-03-12T10:45:26.220Z,1006.87
2024-03-12T10:46:26.247Z,1006.93
2024-03-12T10:47:26.198Z,1006.90
2024-03-12T10:48:26.184Z,1006.89
2024-03-12T10:49:27.863Z,1006.91
2024-03-12T10:50:26.172Z,1006.90
2024-03-12T10:51:26.158Z,1006.89
2024-03-12T10:52:26.165Z,1006.89
2024-03-12T10:53:27.872Z,1006.88
2024-03-12T10:54:26.104Z,1006.91
2024-03-12T10:55:26.210Z,1006.91
2024-03-12T10:56:26.115Z,1006.91
2024-03-12T10:57:26.083Z,1006.91
2024-03-12T10:58:26.067Z,1006.92
2024-03-12T10:59:26.050Z,1006.90
2024-03-12T11:00:26.040Z,1006.94
2024-03-12T11:01:26.111Z,1006.90
2024-03-12T11:02:26.029Z,1006.91
2024-03-12T11:03:26.010Z,1006.93
2024-03-12T11:04:25.983Z,1006.92
2024-03-12T11:05:25.992Z,1006.88
2024-03-12T11:06:26.011Z,1006.97
2024-03-12T11:07:25.962Z,1006.96
2024-03-12T11:08:25.990Z,1006.97
2024-03-12T11:09:25.945Z,1006.99
2024-03-12T11:10:26.054Z,1006.99
2024-03-12T11:11:25.935Z,1007.01
2024-03-12T11:12:25.929Z,1007.00
2024-03-12T11:13:25.908Z,1007.05
2024-03-12T11:14:25.890Z,1007.02
2024-03-12T11:15:25.877Z,1007.06
2024-03-12T11:16:25.885Z,1007.05
2024-03-12T11:17:25.853Z,1007.07
2024-03-12T11:18:25.865Z,1007.07
2024-03-12T11:19:25.873Z,1007.08
2024-03-12T11:20:28.250Z,1007.07
2024-03-12T11:21:25.840Z,1007.05
2024-03-12T11:22:25.873Z,1007.05
2024-03-12T11:23:25.801Z,1007.08
2024-03-12T11:24:25.884Z,1007.08
2024-03-12T11:25:25.781Z,1007.06
2024-03-12T11:26:36.065Z,1007.08
2024-03-12T11:27:25.748Z,1007.11
2024-03-12T11:28:25.726Z,1007.11
2024-03-12T11:29:25.725Z,1007.11
2024-03-12T11:30:25.719Z,1007.12
2024-03-12T11:31:25.696Z,1007.14
2024-03-12T11:32:25.750Z,1007.09
2024-03-12T11:33:25.696Z,1007.15
2024-03-12T11:34:25.814Z,1007.15
2024-03-12T11:35:25.665Z,1007.17
2024-03-12T11:36:25.636Z,1007.19
2024-03-12T11:37:25.674Z,1007.15
2024-03-12T11:38:25.792Z,1007.23
2024-03-12T11:39:25.984Z,1007.20
2024-03-12T11:40:25.691Z,1007.19
2024-03-12T11:41:25.593Z,1007.23
2024-03-12T11:42:25.570Z,1007.25
2024-03-12T11:43:25.594Z,1007.26
2024-03-12T11:44:25.580Z,1007.24
2024-03-12T11:45:25.537Z,1007.27
2024-03-12T11:46:25.521Z,1007.25
2024-03-12T11:47:25.826Z,1007.30
2024-03-12T11:48:25.537Z,1007.23
2024-03-12T11:49:25.512Z,1007.29
2024-03-12T11:50:25.516Z,1007.29
2024-03-12T11:51:25.490Z,1007.26
2024-03-12T11:52:25.584Z,1007.29
2024-03-12T11:53:25.449Z,1007.27
2024-03-12T11:54:25.438Z,1007.23
2024-03-12T11:55:25.439Z,1007.29
2024-03-12T11:56:25.441Z,1007.25
2024-03-12T11:57:25.405Z,1007.25
2024-03-12T11:58:25.421Z,1007.32
2024-03-12T11:59:25.409Z,1007.35
2024-03-12T12:00:25.406Z,1007.34
2024-03-12T12:01:25.623Z,1007.32
2024-03-12T12:02:25.362Z,1007.34
2024-03-12T12:03:25.334Z,1007.31
2024-03-12T12:04:25.347Z,1007.35
2024-03-12T12:05:25.350Z,1007.35